Time,TemperatureF,DewpointF,PressureIn,WindDirection,WindDirectionDegrees,WindSpeedMPH,WindSpeedGustMPH,Humidity,HourlyPrecipIn,Conditions,Clouds,dailyrainin,SoftwareType,DateUTC
2013-05-21 00:03:00,75.0,66.0,29.83,SSW,207,4.0,8.0,73,0.00,,,0.00,,2013-05-21 04:03:00,
2013-05-21 00:13:00,75.0,66.0,29.83,SSW,207,4.0,8.0,73,0.00,,,0.00,,2013-05-21 04:13:00,
2013-05-21 00:23:00,75.0,66.0,29.82,South,173,4.0,8.0,74,0.00,,,0.00,,2013-05-21 04:23:00,
2013-05-21 00:33:00,75.0,66.0,29.82,SE,140,6.0,10.0,74,0.00,,,0.00,,2013-05-21 04:33:00,
2013-05-21 00:42:00,75.0,66.0,29.82,SE,140,6.0,10.0,74,0.00,,,0.00,,2013-05-21 04:42:00,
2013-05-21 00:53:00,75.0,66.0,29.81,SE,135,5.0,10.0,74,0.00,,,0.00,,2013-05-21 04:53:00,
2013-05-21 01:02:00,75.0,67.0,29.81,SSW,209,6.0,10.0,75,0.00,,,0.00,,2013-05-21 05:02:00,
2013-05-21 01:12:00,75.0,67.0,29.81,SSW,209,6.0,10.0,75,0.00,,,0.00,,2013-05-21 05:12:00,
2013-05-21 01:22:00,75.0,67.0,29.82,SSW,196,6.0,11.0,75,0.00,,,0.00,,2013-05-21 05:22:00,
2013-05-21 01:32:00,75.0,67.0,29.83,South,190,6.0,12.0,75,0.00,,,0.00,,2013-05-21 05:32:00,
2013-05-21 01:42:00,75.0,67.0,29.82,SSE,158,5.0,12.0,75,0.00,,,0.00,,2013-05-21 05:42:00,
2013-05-21 01:52:00,75.0,67.0,29.82,SSE,158,5.0,12.0,75,0.00,,,0.00,,2013-05-21 05:52:00,
2013-05-21 02:02:00,75.0,67.0,29.82,SE,136,5.0,9.0,76,0.00,,,0.00,,2013-05-21 06:02:00,
2013-05-21 02:12:00,75.0,67.0,29.82,SE,136,5.0,9.0,76,0.00,,,0.00,,2013-05-21 06:12:00,
2013-05-21 02:21:00,75.0,67.0,29.81,SSW,193,6.0,14.0,76,0.00,,,0.00,,2013-05-21 06:21:00,
2013-05-21 02:32:00,74.0,66.0,29.80,SE,133,5.0,10.0,77,0.00,,,0.00,,2013-05-21 06:32:00,
2013-05-21 02:42:00,74.0,66.0,29.80,SE,133,5.0,10.0,77,0.00,,,0.00,,2013-05-21 06:42:00,
2013-05-21 02:52:00,74.0,67.0,29.80,South,171,6.0,10.0,79,0.00,,,0.00,,2013-05-21 06:52:00,
2013-05-21 03:01:00,74.0,67.0,29.79,SE,134,7.0,13.0,79,0.00,,,0.00,,2013-05-21 07:01:00,
2013-05-21 03:11:00,74.0,67.0,29.79,SE,134,7.0,13.0,79,0.00,,,0.00,,2013-05-21 07:11:00,
2013-05-21 03:22:00,74.0,67.0,29.78,South,189,7.0,13.0,80,0.00,,,0.00,,2013-05-21 07:22:00,
2013-05-21 03:31:00,74.0,68.0,29.77,South,177,6.0,12.0,81,0.00,,,0.00,,2013-05-21 07:31:00,
2013-05-21 03:41:00,74.0,68.0,29.77,South,177,6.0,12.0,81,0.00,,,0.00,,2013-05-21 07:41:00,
2013-05-21 03:52:00,74.0,68.0,29.78,South,177,9.0,14.0,81,0.00,,,0.00,,2013-05-21 07:52:00,
2013-05-21 04:02:00,74.0,68.0,29.78,SSW,203,9.0,17.0,81,0.00,,,0.00,,2013-05-21 08:02:00,
2013-05-21 04:11:00,74.0,68.0,29.78,South,182,6.0,14.0,82,0.00,,,0.00,,2013-05-21 08:11:00,
2013-05-21 04:21:00,74.0,68.0,29.78,South,182,6.0,14.0,82,0.00,,,0.00,,2013-05-21 08:21:00,
2013-05-21 04:31:00,69.0,62.0,29.82,WSW,257,14.0,26.0,78,0.00,,,0.00,,2013-05-21 08:31:00,
2013-05-21 04:41:00,67.0,62.0,29.81,WSW,246,7.0,21.0,85,0.00,,,0.00,,2013-05-21 08:41:00,
2013-05-21 04:52:00,67.0,62.0,29.81,WSW,246,7.0,21.0,85,0.00,,,0.00,,2013-05-21 08:52:00,
2013-05-21 05:01:00,66.0,62.0,29.80,SSW,209,3.0,10.0,88,0.01,,,0.01,,2013-05-21 09:01:00,
2013-05-21 05:11:00,66.0,62.0,29.80,SSW,209,3.0,10.0,88,0.01,,,0.01,,2013-05-21 09:11:00,
2013-05-21 05:21:00,65.0,61.0,29.80,SSW,202,4.0,7.0,88,0.02,,,0.02,,2013-05-21 09:21:00,
2013-05-21 05:33:00,65.0,62.0,29.79,South,189,3.0,7.0,89,0.02,,,0.02,,2013-05-21 09:33:00,
2013-05-21 05:42:00,65.0,62.0,29.79,South,189,3.0,7.0,89,0.02,,,0.02,,2013-05-21 09:42:00,
2013-05-21 05:53:00,65.0,62.0,29.79,South,191,5.0,7.0,89,0.01,,,0.02,,2013-05-21 09:53:00,
2013-05-21 06:02:00,65.0,62.0,29.79,SSW,195,4.0,7.0,89,0.01,,,0.02,,2013-05-21 10:02:00,
2013-05-21 06:12:00,65.0,62.0,29.79,SSW,195,4.0,7.0,89,0.01,,,0.02,,2013-05-21 10:12:00,
2013-05-21 06:22:00,65.0,62.0,29.77,SE,131,1.0,4.0,90,0.00,,,0.02,,2013-05-21 10:22:00,
2013-05-21 06:32:00,65.0,62.0,29.77,SSE,153,4.0,7.0,90,0.00,,,0.02,,2013-05-21 10:32:00,
2013-05-21 06:42:00,65.0,62.0,29.77,SSE,153,4.0,7.0,90,0.00,,,0.02,,2013-05-21 10:42:00,
2013-05-21 06:52:00,65.0,62.0,29.79,South,176,4.0,6.0,91,0.00,,,0.02,,2013-05-21 10:52:00,
2013-05-21 07:02:00,65.0,62.0,29.79,South,169,2.0,5.0,91,0.00,,,0.02,,2013-05-21 11:02:00,
2013-05-21 07:12:00,65.0,62.0,29.79,South,169,2.0,5.0,91,0.00,,,0.02,,2013-05-21 11:12:00,
2013-05-21 07:22:00,65.0,62.0,29.80,SSW,193,6.0,8.0,91,0.00,,,0.02,,2013-05-21 11:22:00,
2013-05-21 07:32:00,65.0,62.0,29.80,South,185,7.0,13.0,90,0.00,,,0.02,,2013-05-21 11:32:00,
2013-05-21 07:42:00,65.0,62.0,29.80,South,185,7.0,13.0,90,0.00,,,0.02,,2013-05-21 11:42:00,
2013-05-21 07:52:00,66.0,63.0,29.81,SSW,193,8.0,15.0,90,0.00,,,0.02,,2013-05-21 11:52:00,
2013-05-21 08:01:00,66.0,62.0,29.81,South,178,8.0,14.0,87,0.00,,,0.02,,2013-05-21 12:01:00,
2013-05-21 08:11:00,66.0,62.0,29.81,South,178,8.0,14.0,87,0.00,,,0.02,,2013-05-21 12:11:00,
2013-05-21 08:21:00,67.0,62.0,29.81,SSW,195,10.0,17.0,85,0.00,,,0.02,,2013-05-21 12:21:00,
2013-05-21 08:32:00,67.0,62.0,29.82,SSE,151,10.0,20.0,83,0.00,,,0.02,,2013-05-21 12:32:00,
2013-05-21 08:42:00,67.0,62.0,29.82,SSE,151,10.0,20.0,83,0.00,,,0.02,,2013-05-21 12:42:00,
2013-05-21 08:52:00,68.0,62.0,29.81,WSW,254,13.0,21.0,80,0.00,,,0.02,,2013-05-21 12:52:00,
2013-05-21 09:01:00,68.0,62.0,29.81,SSW,196,8.0,17.0,81,0.00,,,0.02,,2013-05-21 13:01:00,
2013-05-21 09:12:00,68.0,62.0,29.81,SSW,196,8.0,17.0,81,0.00,,,0.02,,2013-05-21 13:12:00,
2013-05-21 09:22:00,67.0,61.0,29.82,South,178,10.0,18.0,81,0.00,,,0.02,,2013-05-21 13:22:00,
2013-05-21 09:32:00,67.0,61.0,29.82,SSE,163,10.0,22.0,82,0.00,,,0.02,,2013-05-21 13:32:00,
2013-05-21 09:42:00,67.0,61.0,29.82,SSE,163,10.0,22.0,82,0.00,,,0.02,,2013-05-21 13:42:00,
2013-05-21 09:52:00,67.0,61.0,29.81,South,187,8.0,17.0,82,0.00,,,0.02,,2013-05-21 13:52:00,
2013-05-21 10:01:00,68.0,62.0,29.81,SSW,194,6.0,18.0,82,0.00,,,0.02,,2013-05-21 14:01:00,
2013-05-21 10:11:00,68.0,62.0,29.81,SSW,194,6.0,18.0,82,0.00,,,0.02,,2013-05-21 14:11:00,
2013-05-21 10:21:00,68.0,62.0,29.81,SSE,165,8.0,17.0,81,0.00,,,0.02,,2013-05-21 14:21:00,
2013-05-21 10:32:00,68.0,62.0,29.81,SSW,202,5.0,16.0,80,0.00,,,0.02,,2013-05-21 14:32:00,
2013-05-21 10:42:00,68.0,62.0,29.81,SSW,202,5.0,16.0,80,0.00,,,0.02,,2013-05-21 14:42:00,
2013-05-21 10:52:00,69.0,62.0,29.81,WSW,238,5.0,11.0,79,0.00,,,0.02,,2013-05-21 14:52:00,
2013-05-21 11:01:00,70.0,62.0,29.82,SSW,205,12.0,18.0,76,0.00,,,0.02,,2013-05-21 15:01:00,
2013-05-21 11:11:00,70.0,62.0,29.82,South,188,10.0,19.0,75,0.00,,,0.02,,2013-05-21 15:11:00,
2013-05-21 11:21:00,70.0,62.0,29.82,South,188,10.0,19.0,75,0.00,,,0.02,,2013-05-21 15:21:00,
2013-05-21 11:33:00,71.0,63.0,29.81,WSW,240,9.0,17.0,75,0.00,,,0.02,,2013-05-21 15:33:00,
2013-05-21 11:42:00,72.0,62.0,29.81,South,189,10.0,19.0,72,0.00,,,0.02,,2013-05-21 15:42:00,
2013-05-21 11:53:00,72.0,62.0,29.81,South,189,10.0,19.0,72,0.00,,,0.02,,2013-05-21 15:53:00,
2013-05-21 12:03:00,73.0,63.0,29.80,SSW,198,13.0,21.0,70,0.00,,,0.02,,2013-05-21 16:03:00,
2013-05-21 12:13:00,73.0,63.0,29.80,SW,236,6.0,14.0,72,0.00,,,0.02,,2013-05-21 16:13:00,
2013-05-21 12:23:00,73.0,63.0,29.80,SW,236,6.0,14.0,72,0.00,,,0.02,,2013-05-21 16:23:00,
2013-05-21 12:32:00,75.0,63.0,29.80,SW,229,9.0,18.0,67,0.00,,,0.02,,2013-05-21 16:32:00,
2013-05-21 12:42:00,76.0,63.0,29.80,SW,222,10.0,18.0,64,0.00,,,0.02,,2013-05-21 16:42:00,
2013-05-21 12:53:00,76.0,63.0,29.80,SW,222,10.0,18.0,64,0.00,,,0.02,,2013-05-21 16:53:00,
2013-05-21 13:02:00,76.0,62.0,29.80,SW,235,13.0,21.0,63,0.00,,,0.02,,2013-05-21 17:02:00,
2013-05-21 13:12:00,77.0,62.0,29.79,SW,217,9.0,25.0,59,0.00,,,0.02,,2013-05-21 17:12:00,
2013-05-21 13:23:00,77.0,62.0,29.79,SW,217,9.0,25.0,59,0.00,,,0.02,,2013-05-21 17:23:00,
2013-05-21 13:32:00,78.0,62.0,29.79,SSW,204,10.0,22.0,58,0.00,,,0.02,,2013-05-21 17:32:00,
2013-05-21 13:43:00,78.0,62.0,29.78,WSW,240,14.0,21.0,58,0.00,,,0.02,,2013-05-21 17:43:00,
2013-05-21 13:52:00,78.0,62.0,29.78,WSW,240,14.0,21.0,58,0.00,,,0.02,,2013-05-21 17:52:00,
2013-05-21 14:02:00,79.0,63.0,29.77,WSW,244,9.0,14.0,58,0.00,,,0.02,,2013-05-21 18:02:00,
2013-05-21 14:12:00,79.0,63.0,29.77,WSW,244,9.0,14.0,58,0.00,,,0.02,,2013-05-21 18:12:00,
2013-05-21 14:22:00,80.0,63.0,29.77,South,187,9.0,21.0,56,0.00,,,0.02,,2013-05-21 18:22:00,
2013-05-21 14:32:00,80.0,62.0,29.76,SW,236,12.0,22.0,54,0.00,,,0.02,,2013-05-21 18:32:00,
2013-05-21 14:42:00,80.0,62.0,29.77,WSW,251,9.0,20.0,55,0.00,,,0.02,,2013-05-21 18:42:00,
2013-05-21 14:52:00,80.0,62.0,29.77,WSW,251,9.0,20.0,55,0.00,,,0.02,,2013-05-21 18:52:00,
2013-05-21 15:01:00,81.0,63.0,29.77,WSW,248,12.0,28.0,54,0.00,,,0.02,,2013-05-21 19:01:00,
2013-05-21 15:11:00,81.0,63.0,29.77,WSW,248,12.0,28.0,54,0.00,,,0.02,,2013-05-21 19:11:00,
2013-05-21 15:21:00,81.0,63.0,29.77,WSW,252,10.0,19.0,54,0.00,,,0.02,,2013-05-21 19:21:00,
2013-05-21 15:32:00,81.0,62.0,29.77,SSW,205,14.0,25.0,52,0.00,,,0.02,,2013-05-21 19:32:00,
2013-05-21 15:42:00,81.0,62.0,29.77,SSW,205,14.0,25.0,52,0.00,,,0.02,,2013-05-21 19:42:00,
2013-05-21 15:52:00,82.0,63.0,29.76,West,272,13.0,26.0,52,0.00,,,0.02,,2013-05-21 19:52:00,
2013-05-21 16:03:00,82.0,63.0,29.77,SW,229,10.0,23.0,52,0.00,,,0.02,,2013-05-21 20:03:00,
2013-05-21 16:11:00,82.0,63.0,29.77,SW,229,10.0,23.0,52,0.00,,,0.02,,2013-05-21 20:11:00,
2013-05-21 16:22:00,82.0,62.0,29.77,West,263,13.0,20.0,51,0.00,,,0.02,,2013-05-21 20:22:00,
2013-05-21 16:32:00,82.0,62.0,29.76,West,260,12.0,23.0,51,0.00,,,0.02,,2013-05-21 20:32:00,
2013-05-21 16:42:00,82.0,62.0,29.76,West,260,12.0,23.0,51,0.00,,,0.02,,2013-05-21 20:42:00,
2013-05-21 16:52:00,82.0,63.0,29.76,West,275,7.0,20.0,52,0.00,,,0.02,,2013-05-21 20:52:00,
2013-05-21 17:02:00,82.0,63.0,29.75,WSW,247,10.0,22.0,52,0.00,,,0.02,,2013-05-21 21:02:00,
2013-05-21 17:11:00,82.0,63.0,29.75,WSW,247,10.0,22.0,52,0.00,,,0.02,,2013-05-21 21:11:00,
2013-05-21 17:21:00,83.0,62.0,29.75,SW,217,9.0,20.0,50,0.00,,,0.02,,2013-05-21 21:21:00,
2013-05-21 17:33:00,83.0,62.0,29.75,SW,215,12.0,20.0,49,0.00,,,0.02,,2013-05-21 21:33:00,
2013-05-21 17:43:00,83.0,62.0,29.75,WSW,242,10.0,16.0,50,0.00,,,0.02,,2013-05-21 21:43:00,
2013-05-21 17:54:00,83.0,62.0,29.75,WSW,242,10.0,16.0,50,0.00,,,0.02,,2013-05-21 21:54:00,
2013-05-21 18:02:00,84.0,63.0,29.74,SW,232,9.0,17.0,49,0.00,,,0.02,,2013-05-21 22:02:00,
2013-05-21 18:12:00,84.0,63.0,29.74,SW,232,9.0,17.0,49,0.00,,,0.02,,2013-05-21 22:12:00,
2013-05-21 18:23:00,84.0,62.0,29.74,SW,217,8.0,18.0,48,0.00,,,0.02,,2013-05-21 22:23:00,
2013-05-21 18:33:00,84.0,62.0,29.73,SSW,192,7.0,15.0,47,0.00,,,0.02,,2013-05-21 22:33:00,
2013-05-21 18:42:00,84.0,62.0,29.73,SSW,192,7.0,15.0,47,0.00,,,0.02,,2013-05-21 22:42:00,
2013-05-21 18:53:00,84.0,62.0,29.73,South,180,8.0,13.0,47,0.00,,,0.02,,2013-05-21 22:53:00,
2013-05-21 19:02:00,84.0,61.0,29.72,SW,228,9.0,24.0,46,0.00,,,0.02,,2013-05-21 23:02:00,
2013-05-21 19:12:00,84.0,61.0,29.72,SW,228,9.0,24.0,46,0.00,,,0.02,,2013-05-21 23:12:00,
2013-05-21 19:22:00,83.0,59.0,29.72,WSW,239,10.0,17.0,45,0.00,,,0.02,,2013-05-21 23:22:00,
2013-05-21 19:32:00,83.0,60.0,29.72,SW,232,6.0,15.0,46,0.00,,,0.02,,2013-05-21 23:32:00,
2013-05-21 19:42:00,83.0,60.0,29.72,SW,226,8.0,12.0,46,0.00,,,0.02,,2013-05-21 23:42:00,
2013-05-21 19:52:00,83.0,60.0,29.72,SW,226,8.0,12.0,46,0.00,,,0.02,,2013-05-21 23:52:00,
2013-05-21 20:01:00,82.0,60.0,29.72,SW,228,6.0,16.0,47,0.00,,,0.02,,2013-05-22 00:01:00,
2013-05-21 20:11:00,82.0,60.0,29.72,SSW,203,7.0,9.0,48,0.00,,,0.02,,2013-05-22 00:11:00,
2013-05-21 20:21:00,82.0,60.0,29.72,SSW,203,7.0,9.0,48,0.00,,,0.02,,2013-05-22 00:21:00,
2013-05-21 20:32:00,82.0,61.0,29.72,SSW,193,5.0,8.0,49,0.00,,,0.02,,2013-05-22 00:32:00,
2013-05-21 20:41:00,82.0,61.0,29.72,SSW,193,5.0,8.0,49,0.00,,,0.02,,2013-05-22 00:41:00,
2013-05-21 20:52:00,81.0,61.0,29.72,SSW,198,6.0,11.0,51,0.00,,,0.02,,2013-05-22 00:52:00,
2013-05-21 21:01:00,81.0,62.0,29.72,South,186,5.0,7.0,53,0.00,,,0.02,,2013-05-22 01:01:00,
2013-05-21 21:11:00,81.0,62.0,29.72,South,186,5.0,7.0,53,0.00,,,0.02,,2013-05-22 01:11:00,
2013-05-21 21:21:00,79.0,62.0,29.72,SSE,157,4.0,8.0,57,0.00,,,0.02,,2013-05-22 01:21:00,
2013-05-21 21:32:00,79.0,64.0,29.72,South,191,4.0,9.0,61,0.00,,,0.02,,2013-05-22 01:32:00,
2013-05-21 21:42:00,78.0,64.0,29.74,South,184,6.0,11.0,63,0.00,,,0.02,,2013-05-22 01:42:00,
2013-05-21 21:52:00,78.0,64.0,29.74,South,184,6.0,11.0,63,0.00,,,0.02,,2013-05-22 01:52:00,
2013-05-21 22:02:00,77.0,64.0,29.75,SSW,211,6.0,12.0,64,0.00,,,0.02,,2013-05-22 02:02:00,
2013-05-21 22:11:00,77.0,64.0,29.75,SSW,211,6.0,12.0,64,0.00,,,0.02,,2013-05-22 02:11:00,
2013-05-21 22:21:00,77.0,64.0,29.75,South,184,6.0,10.0,65,0.00,,,0.02,,2013-05-22 02:21:00,
2013-05-21 22:32:00,76.0,64.0,29.75,SSW,205,7.0,10.0,66,0.00,,,0.02,,2013-05-22 02:32:00,
2013-05-21 22:42:00,76.0,64.0,29.76,South,187,6.0,11.0,67,0.00,,,0.02,,2013-05-22 02:42:00,
2013-05-21 22:52:00,76.0,64.0,29.76,South,187,6.0,11.0,67,0.00,,,0.02,,2013-05-22 02:52:00,
2013-05-21 23:01:00,76.0,64.0,29.77,SSE,160,7.0,11.0,66,0.00,,,0.02,,2013-05-22 03:01:00,
2013-05-21 23:11:00,75.0,63.0,29.77,SSW,193,7.0,9.0,67,0.00,,,0.02,,2013-05-22 03:11:00,
2013-05-21 23:21:00,75.0,63.0,29.77,SSW,193,7.0,9.0,67,0.00,,,0.02,,2013-05-22 03:21:00,
2013-05-21 23:33:00,74.0,63.0,29.77,South,190,5.0,7.0,68,0.00,,,0.02,,2013-05-22 03:33:00,
2013-05-21 23:43:00,74.0,63.0,29.77,SSW,194,4.0,7.0,69,0.00,,,0.02,,2013-05-22 03:43:00,
2013-05-21 23:53:00,74.0,63.0,29.77,SSW,194,4.0,7.0,69,0.00,,,0.02,,2013-05-22 03:53:00,